Time;durP1;ratioP1;P1;durP2;ratioP2;P2;SDS_P1;SDS_P2;PMS_P1;PMS_P2;Temp;Humidity;BMP_temperature;BMP_pressure;BME280_temperature;BME280_humidity;BME280_pressure;Samples;Min_cycle;Max_cycle;Signal;HPM_P1;HPM_P2
2022/09/05 00:00:01;;;;;;;6.23;5.67;;;;;;;18.69;87.78;95010.13;4932426;29;20259;-79
2022/09/05 00:02:57;;;;;;;6.53;5.47;;;;;;;20.10;87.53;95228.72;4962424;28;20205;-78
2022/09/05 00:05:57;;;;;;;6.67;5.93;;;;;;;20.01;87.03;95220.25;4986056;28;20225;-78
2022/09/05 00:08:30;;;;;;;6.30;5.70;;;;;;;19.98;87.32;95223.19;4988563;28;20193;-79
2022/09/05 00:11:06;;;;;;;6.47;5.87;;;;;;;19.76;87.80;95201.59;4992456;28;20181;-80
2022/09/05 00:13:39;;;;;;;7.83;6.87;;;;;;;19.69;87.81;95193.72;4992545;28;20200;-79
2022/09/05 00:16:31;;;;;;;9.47;6.87;;;;;;;19.83;87.96;95225.03;4992493;28;20200;-80
2022/09/05 00:19:09;;;;;;;9.63;6.60;;;;;;;19.94;87.26;95219.34;4985448;28;20189;-79
2022/09/05 00:21:50;;;;;;;7.63;7.00;;;;;;;20.01;87.13;95228.03;4992229;28;20260;-78
2022/09/05 00:24:41;;;;;;;8.00;7.20;;;;;;;19.86;88.31;95233.28;4992928;28;20223;-78
2022/09/05 00:27:19;;;;;;;8.00;6.83;;;;;;;19.70;88.91;95238.66;4974938;28;20649;-77
2022/09/05 00:30:01;;;;;;;7.33;6.73;;;;;;;19.68;88.23;95219.84;4992522;28;20193;-78
2022/09/05 00:32:42;;;;;;;7.83;7.13;;;;;;;19.50;88.12;95186.47;4992521;28;20193;-77
2022/09/05 00:35:36;;;;;;;8.10;7.40;;;;;;;19.87;86.99;95224.50;4992246;28;20197;-79
2022/09/05 00:38:12;;;;;;;8.53;7.73;;;;;;;19.80;87.28;95224.41;4992678;28;20719;-78
2022/09/05 00:40:44;;;;;;;8.80;8.10;;;;;;;19.87;86.75;95237.47;4992076;28;20671;-79
2022/09/05 00:43:14;;;;;;;8.40;7.70;;;;;;;19.78;87.31;95238.56;4992452;28;20193;-78
2022/09/05 00:45:46;;;;;;;9.37;8.30;;;;;;;19.80;86.59;95241.75;4992344;28;20224;-79
2022/09/05 00:48:21;;;;;;;9.33;8.00;;;;;;;19.75;86.53;95250.09;4992602;28;20194;-79
2022/09/05 00:51:02;;;;;;;8.53;7.43;;;;;;;19.88;85.06;95231.28;4992202;28;20197;-79
2022/09/05 00:53:38;;;;;;;9.70;8.80;;;;;;;19.79;85.65;95237.56;4992240;28;20223;-78
2022/09/05 00:56:20;;;;;;;9.00;8.10;;;;;;;19.61;85.50;95204.22;4992230;28;20204;-78
2022/09/05 00:59:05;;;;;;;8.80;8.00;;;;;;;19.69;85.35;95213.66;4991841;28;20664;-78
2022/09/05 01:01:43;;;;;;;8.37;7.57;;;;;;;19.75;85.21;95220.75;4992291;28;20193;-79
2022/09/05 01:04:32;;;;;;;8.23;7.53;;;;;;;19.84;85.17;95245.59;4991826;28;20228;-80
2022/09/05 01:07:15;;;;;;;8.83;7.93;;;;;;;19.64;85.04;95223.78;4974121;28;20197;-79
2022/09/05 01:09:55;;;;;;;9.50;8.00;;;;;;;19.83;84.99;95240.59;4991978;28;20710;-77
2022/09/05 01:12:43;;;;;;;8.80;7.97;;;;;;;19.75;84.95;95250.09;4992013;28;20276;-78
2022/09/05 01:15:21;;;;;;;7.57;6.97;;;;;;;19.71;84.59;95238.47;4991565;28;20224;-78
2022/09/05 01:18:09;;;;;;;7.93;7.23;;;;;;;19.67;84.87;95233.81;4991819;28;20614;-79
2022/09/05 01:20:52;;;;;;;8.43;7.57;;;;;;;19.74;84.90;95242.50;4988967;28;20197;-78
2022/09/05 01:23:44;;;;;;;9.00;7.77;;;;;;;19.69;85.27;95248.22;4991899;28;20255;-78
2022/09/05 01:26:33;;;;;;;9.30;6.93;;;;;;;19.74;85.35;95247.69;4985135;28;20580;-80
2022/09/05 01:29:06;;;;;;;7.43;6.73;;;;;;;19.76;84.56;95245.69;4991238;28;20203;-79
2022/09/05 01:31:42;;;;;;;8.77;7.00;;;;;;;19.61;84.91;95230.16;4991429;28;20186;-78
2022/09/05 01:34:17;;;;;;;8.07;7.27;;;;;;;19.32;84.45;95173.88;4991168;28;20197;-79
2022/09/05 01:36:58;;;;;;;7.27;6.57;;;;;;;19.74;84.35;95242.50;4991415;28;20185;-78
2022/09/05 01:39:40;;;;;;;7.87;7.17;;;;;;;19.58;84.72;95225.28;4991171;28;20279;-80
2022/09/05 01:42:23;;;;;;;7.00;6.30;;;;;;;19.60;85.22;95241.47;4991227;28;20193;-77
2022/09/05 01:44:59;;;;;;;7.73;7.03;;;;;;;19.59;85.26;95232.06;4992168;28;20663;-79
2022/09/05 01:47:38;;;;;;;7.17;6.47;;;;;;;19.63;85.34;95229.97;4991481;28;20200;-82
2022/09/05 01:50:20;;;;;;;7.60;6.90;;;;;;;19.62;85.35;95234.34;4991606;28;20201;-83
2022/09/05 01:53:12;;;;;;;7.83;7.20;;;;;;;19.61;85.59;95235.34;4991671;28;20193;-82
2022/09/05 01:55:57;;;;;;;9.27;6.87;;;;;;;19.62;85.35;95236.94;4991366;28;20243;-81
2022/09/05 01:58:31;;;;;;;7.50;6.80;;;;;;;19.73;84.63;95240.88;4991285;28;20216;-82
2022/09/05 02:01:07;;;;;;;8.20;6.20;;;;;;;19.80;83.97;95241.75;4991482;28;20196;-81
2022/09/05 02:03:41;;;;;;;7.07;6.47;;;;;;;19.66;84.88;95245.19;4991892;28;20193;-82
2022/09/05 02:06:34;;;;;;;10.63;6.60;;;;;;;19.54;85.58;95244.78;4992015;28;20727;-82
2022/09/05 02:09:31;;;;;;;6.97;6.37;;;;;;;19.56;85.03;95242.84;4990466;28;20228;-79
2022/09/05 02:12:04;;;;;;;8.37;6.97;;;;;;;19.57;85.02;95241.03;4991894;28;20186;-79
2022/09/05 02:14:40;;;;;;;7.10;6.40;;;;;;;19.62;84.28;95242.13;4990891;28;20236;-80
2022/09/05 02:17:20;;;;;;;8.60;6.57;;;;;;;19.60;84.71;95238.06;4990339;28;20207;-80
2022/09/05 02:19:51;;;;;;;7.50;6.87;;;;;;;19.55;84.91;95236.81;4990741;28;20310;-82
2022/09/05 02:22:23;;;;;;;7.73;6.93;;;;;;;19.56;84.35;95237.66;4990528;28;20229;-82
2022/09/05 02:24:56;;;;;;;8.13;6.77;;;;;;;19.28;83.97;95190.78;4990191;28;20294;-81
2022/09/05 02:27:31;;;;;;;7.17;6.57;;;;;;;19.58;83.77;95237.47;4990620;28;20568;-77
2022/09/05 02:30:08;;;;;;;8.27;7.47;;;;;;;19.37;84.48;95217.41;4990772;28;20181;-77
2022/09/05 02:33:05;;;;;;;7.43;6.70;;;;;;;19.44;84.44;95233.88;4991173;28;20259;-77
2022/09/05 02:35:41;;;;;;;7.40;6.70;;;;;;;19.42;84.51;95225.47;4990754;28;20200;-78
2022/09/05 02:38:15;;;;;;;7.63;6.83;;;;;;;19.28;84.33;95206.31;4990849;28;20664;-81
2022/09/05 02:40:48;;;;;;;7.13;6.53;;;;;;;19.53;84.51;95243.19;4990959;28;20232;-81
2022/09/05 02:43:22;;;;;;;6.57;6.07;;;;;;;19.55;84.23;95247.19;4990584;28;20208;-81
2022/09/05 02:45:59;;;;;;;7.17;6.43;;;;;;;19.54;83.82;95244.78;4991205;28;20223;-81
2022/09/05 02:48:40;;;;;;;7.03;6.40;;;;;;;19.51;83.89;95248.53;4990648;28;20201;-81
2022/09/05 02:51:14;;;;;;;7.03;6.33;;;;;;;19.49;83.70;95239.34;4990407;28;20687;-80
2022/09/05 02:53:44;;;;;;;6.47;5.87;;;;;;;19.47;83.93;95251.66;4990653;28;20199;-80
2022/09/05 02:56:40;;;;;;;6.73;6.03;;;;;;;19.50;83.35;95246.13;4990706;28;20192;-80
2022/09/05 02:59:24;;;;;;;5.90;5.40;;;;;;;19.48;82.94;95246.31;4982921;28;20208;-80
2022/09/05 03:02:10;;;;;;;6.63;5.50;;;;;;;19.48;82.80;95256.69;4991268;28;20188;-80
2022/09/05 03:04:47;;;;;;;5.43;5.03;;;;;;;19.38;82.33;95234.59;4990281;28;20526;-79
2022/09/05 03:07:45;;;;;;;6.50;5.30;;;;;;;19.47;82.26;95257.69;4990643;28;20576;-81
2022/09/05 03:10:24;;;;;;;8.17;6.00;;;;;;;19.48;82.02;95259.28;4985116;28;20552;-81
2022/09/05 03:13:17;;;;;;;5.53;5.13;;;;;;;19.51;81.84;95258.13;4990239;28;20193;-80
2022/09/05 03:16:16;;;;;;;6.03;5.53;;;;;;;19.58;81.11;95268.59;4990217;28;20612;-80
2022/09/05 03:19:27;;;;;;;6.50;5.63;;;;;;;19.51;81.40;95258.13;4990626;28;20193;-80
2022/09/05 03:22:22;;;;;;;7.87;5.33;;;;;;;19.48;81.65;95266.28;4892985;29;20605;-82
2022/09/05 03:25:35;;;;;;;6.63;5.83;;;;;;;19.42;81.92;95266.97;4890512;29;20225;-83
2022/09/05 03:28:40;;;;;;;5.97;5.17;;;;;;;19.32;82.02;95256.06;4852002;29;20202;-80
2022/09/05 03:31:29;;;;;;;6.07;5.20;;;;;;;19.46;81.93;95268.22;4818443;29;20202;-81
2022/09/05 03:34:37;;;;;;;6.80;4.97;;;;;;;19.42;81.63;95270.38;4818819;29;20207;-81
2022/09/05 03:37:38;;;;;;;5.30;4.80;;;;;;;19.14;82.27;95241.66;4821892;29;20206;-83
2022/09/05 03:40:50;;;;;;;6.90;5.10;;;;;;;19.32;81.95;95275.03;4823353;29;20199;-78
2022/09/05 03:43:50;;;;;;;7.03;5.20;;;;;;;19.36;81.51;95283.25;4822323;29;20210;-79
2022/09/05 03:46:40;;;;;;;5.47;4.97;;;;;;;19.39;81.25;95280.31;4822164;29;20245;-78
2022/09/05 03:49:36;;;;;;;6.83;5.23;;;;;;;19.39;81.11;95288.91;4839175;29;20229;-78
2022/09/05 03:52:14;;;;;;;5.97;5.13;;;;;;;19.28;81.34;95295.31;4823104;29;20244;-78
2022/09/05 03:55:13;;;;;;;6.77;4.63;;;;;;;19.33;81.37;95293.97;4832536;29;20203;-78
2022/09/05 03:58:00;;;;;;;9.30;5.80;;;;;;;19.31;81.53;95299.34;4833059;29;20210;-78
2022/09/05 04:00:32;;;;;;;5.20;4.80;;;;;;;19.35;81.50;95302.41;4896895;29;20189;-77
2022/09/05 04:03:12;;;;;;;8.40;4.60;;;;;;;19.27;81.52;95296.31;4901284;29;20210;-78
2022/09/05 04:05:43;;;;;;;5.13;4.63;;;;;;;19.29;81.55;95307.28;4934243;29;20317;-79
2022/09/05 04:08:18;;;;;;;5.80;5.20;;;;;;;19.32;81.81;95313.91;4972505;28;20193;-78
2022/09/05 04:10:54;;;;;;;6.87;5.73;;;;;;;19.28;81.59;95302.28;4993484;28;20196;-79
2022/09/05 04:13:26;;;;;;;12.47;4.80;;;;;;;19.35;81.73;95311.00;4993349;28;20205;-77
2022/09/05 04:16:04;;;;;;;6.00;4.53;;;;;;;19.38;81.63;95315.81;4992718;28;20251;-78
2022/09/05 04:18:39;;;;;;;5.57;5.07;;;;;;;19.35;81.52;95321.34;4992950;28;20193;-78
2022/09/05 04:21:12;;;;;;;8.93;4.77;;;;;;;19.26;81.17;95310.25;4985421;28;20239;-77
2022/09/05 04:23:52;;;;;;;5.30;4.80;;;;;;;19.17;81.41;95321.69;4992945;28;20201;-77
2022/09/05 04:26:45;;;;;;;5.10;4.60;;;;;;;19.10;81.81;95328.53;4992563;28;20308;-78
2022/09/05 04:29:20;;;;;;;6.10;4.77;;;;;;;19.09;81.78;95333.91;4978231;28;20204;-77
2022/09/05 04:31:55;;;;;;;10.07;5.40;;;;;;;18.98;82.13;95329.94;4993182;28;20196;-79
2022/09/05 04:34:40;;;;;;;6.73;5.27;;;;;;;19.09;81.88;95332.13;4992450;28;20185;-79
2022/09/05 04:37:09;;;;;;;7.10;5.30;;;;;;;19.01;81.91;95319.22;4993727;28;20668;-77
2022/09/05 04:39:36;;;;;;;6.10;5.60;;;;;;;19.02;82.16;95338.97;4992688;28;20196;-77
2022/09/05 04:42:20;;;;;;;5.90;5.30;;;;;;;19.13;81.90;95350.69;4992480;28;20679;-77
2022/09/05 04:44:51;;;;;;;6.40;5.20;;;;;;;19.17;81.34;95349.38;4992310;28;20208;-76
2022/09/05 04:47:22;;;;;;;8.40;5.33;;;;;;;18.83;82.01;95301.38;4991556;28;20201;-77
2022/09/05 04:49:54;;;;;;;6.87;4.77;;;;;;;19.14;81.87;95353.13;4992144;28;20223;-79
2022/09/05 04:52:54;;;;;;;5.70;5.20;;;;;;;19.18;81.75;95363.97;4992787;28;20204;-77
2022/09/05 04:55:25;;;;;;;6.33;5.73;;;;;;;19.11;82.09;95360.44;4932407;29;20202;-78
2022/09/05 04:57:56;;;;;;;6.97;5.03;;;;;;;19.16;81.87;95369.31;4931870;29;20209;-80
2022/09/05 05:00:32;;;;;;;7.10;5.53;;;;;;;19.02;82.06;95357.13;4931977;29;20195;-80
2022/09/05 05:03:01;;;;;;;5.60;5.10;;;;;;;18.79;82.44;95333.78;4932154;29;20694;-81
2022/09/05 05:05:36;;;;;;;5.77;5.23;;;;;;;18.49;82.82;95299.16;4915804;29;20428;-81
2022/09/05 05:08:12;;;;;;;5.90;5.40;;;;;;;18.85;82.51;95337.47;4931764;29;20198;-80
2022/09/05 05:10:45;;;;;;;6.13;5.53;;;;;;;18.93;82.06;95342.59;4931433;29;20725;-81
2022/09/05 05:13:22;;;;;;;5.33;4.83;;;;;;;19.33;81.31;95382.97;4931366;29;20199;-79
2022/09/05 05:15:56;;;;;;;8.07;5.40;;;;;;;19.34;81.01;95384.56;4931672;29;20312;-80
2022/09/05 05:18:29;;;;;;;7.43;5.80;;;;;;;19.43;80.88;95386.16;4931444;29;20198;-80
2022/09/05 05:21:02;;;;;;;7.60;5.07;;;;;;;19.49;80.51;95392.41;4931465;29;20199;-80
2022/09/05 05:23:35;;;;;;;8.53;5.33;;;;;;;19.51;80.44;95393.81;4930610;29;20293;-81
2022/09/05 05:26:05;;;;;;;7.03;5.27;;;;;;;19.42;80.45;95370.72;4931455;29;20233;-80
2022/09/05 05:28:49;;;;;;;5.80;5.17;;;;;;;19.68;79.83;95397.13;4931343;29;20212;-77
2022/09/05 05:31:22;;;;;;;6.30;5.70;;;;;;;19.74;79.46;95404.22;4942608;28;20732;-77
2022/09/05 05:33:52;;;;;;;6.27;5.23;;;;;;;19.73;79.45;95391.41;4990613;28;20201;-78
2022/09/05 05:36:25;;;;;;;6.30;5.70;;;;;;;19.84;79.30;95409.16;4990914;28;20196;-80
2022/09/05 05:38:58;;;;;;;9.57;6.33;;;;;;;19.71;79.09;95375.22;4991455;28;20193;-79
2022/09/05 05:41:31;;;;;;;6.90;5.30;;;;;;;19.91;79.00;95412.66;4991174;28;20324;-77
2022/09/05 05:44:05;;;;;;;6.67;5.60;;;;;;;19.92;78.79;95416.06;4991138;28;20200;-78
2022/09/05 05:46:36;;;;;;;6.35;5.60;;;;;;;19.98;78.81;95413.53;4990483;28;20244;-78
2022/09/05 05:49:25;;;;;;;6.70;6.10;;;;;;;19.93;78.88;95402.09;4991348;28;20200;-78
2022/09/05 05:52:14;;;;;;;9.57;5.87;;;;;;;20.06;78.64;95412.66;4990756;28;20200;-77
2022/09/05 05:54:47;;;;;;;10.63;5.82;;;;;;;20.07;77.99;95408.25;4990668;28;20208;-80
2022/09/05 05:57:47;;;;;;;7.33;6.23;;;;;;;20.03;78.60;95418.19;4991250;28;20510;-83
2022/09/05 06:00:20;;;;;;;6.37;5.80;;;;;;;20.11;78.53;95412.13;4984601;28;20201;-78
2022/09/05 06:03:39;;;;;;;7.43;6.40;;;;;;;20.21;78.28;95417.88;4990917;28;20700;-78
2022/09/05 06:06:22;;;;;;;7.53;5.60;;;;;;;20.23;76.73;95403.69;4930602;29;20355;-82
2022/09/05 06:09:27;;;;;;;7.33;5.53;;;;;;;20.32;76.36;95422.59;4930513;29;20230;-80
2022/09/05 06:12:15;;;;;;;11.50;6.65;;;;;;;20.19;77.39;95417.22;4930411;29;20230;-79
2022/09/05 06:15:27;;;;;;;7.03;5.60;;;;;;;20.44;76.89;95423.75;4930298;29;20378;-77
2022/09/05 06:18:29;;;;;;;7.00;5.70;;;;;;;20.41;76.26;95373.94;4885139;29;20203;-79
2022/09/05 06:21:34;;;;;;;7.57;5.33;;;;;;;20.94;74.39;95414.38;4892462;29;20204;-80
2022/09/05 06:24:41;;;;;;;6.10;5.20;;;;;;;21.25;73.08;95414.09;4892724;29;20306;-78
2022/09/05 06:27:32;;;;;;;8.07;5.22;;;;;;;21.54;71.99;95412.34;4892609;29;20238;-80
2022/09/05 06:30:01;;;;;;;5.75;5.22;;;;;;;21.91;70.13;95426.88;4892810;29;20204;-80
2022/09/05 06:32:46;;;;;;;5.85;4.80;;;;;;;22.23;68.99;95427.28;4892767;29;20611;-80
2022/09/05 06:35:37;;;;;;;7.57;4.70;;;;;;;22.54;66.99;95435.50;4892502;29;20196;-79
2022/09/05 06:38:25;;;;;;;5.32;4.40;;;;;;;22.71;66.93;95438.56;4884148;29;20204;-81
2022/09/05 06:41:07;;;;;;;4.35;3.95;;;;;;;22.97;66.04;95437.06;4901662;29;20286;-79
2022/09/05 06:44:12;;;;;;;6.97;5.35;;;;;;;23.21;65.79;95436.53;4929978;29;20203;-80
2022/09/05 06:46:41;;;;;;;5.15;4.68;;;;;;;23.32;64.45;95436.97;4930272;29;20233;-79
2022/09/05 06:49:16;;;;;;;4.72;4.28;;;;;;;23.37;63.74;95437.97;4930282;29;20675;-77
2022/09/05 06:52:12;;;;;;;7.70;4.30;;;;;;;23.24;62.50;95440.56;4959071;28;20642;-76
2022/09/05 06:55:14;;;;;;;4.63;4.22;;;;;;;22.73;62.97;95417.50;5009505;28;20695;-79
2022/09/05 06:58:19;;;;;;;5.18;3.78;;;;;;;22.55;63.18;95441.50;4970906;28;20208;-78
2022/09/05 07:00:49;;;;;;;5.53;3.85;;;;;;;22.66;64.07;95446.16;4986233;28;20215;-77
2022/09/05 07:03:47;;;;;;;4.95;4.25;;;;;;;22.44;64.16;95442.84;5009468;28;20200;-77
2022/09/05 07:06:21;;;;;;;3.80;3.50;;;;;;;21.98;64.70;95421.72;4990761;28;20677;-78
2022/09/05 07:08:53;;;;;;;5.10;4.60;;;;;;;21.87;65.30;95432.66;4990342;28;20185;-76
2022/09/05 07:11:25;;;;;;;4.38;3.53;;;;;;;22.08;64.75;95432.59;4992847;28;20196;-78
2022/09/05 07:13:58;;;;;;;6.43;5.15;;;;;;;22.10;64.94;95435.78;4993696;28;20228;-77
2022/09/05 07:16:40;;;;;;;4.80;4.30;;;;;;;22.12;64.57;95420.81;4993820;28;20201;-79
2022/09/05 07:19:25;;;;;;;5.47;4.10;;;;;;;22.28;64.67;95437.97;5005639;28;20737;-78
2022/09/05 07:22:15;;;;;;;5.45;4.82;;;;;;;22.10;63.51;95406.34;4996705;28;20200;-77
2022/09/05 07:24:45;;;;;;;6.22;4.30;;;;;;;22.39;63.77;95432.19;4993753;28;20212;-78
2022/09/05 07:27:29;;;;;;;4.60;3.80;;;;;;;22.68;63.16;95430.34;4993344;28;20271;-78
2022/09/05 07:29:59;;;;;;;4.25;3.85;;;;;;;22.88;62.26;95430.38;4993826;28;20638;-77
2022/09/05 07:32:28;;;;;;;7.82;3.42;;;;;;;22.85;61.37;95389.06;4993458;28;20237;-80
2022/09/05 07:34:58;;;;;;;4.50;3.50;;;;;;;23.06;59.83;95424.66;4993624;28;20691;-78
2022/09/05 07:37:34;;;;;;;4.63;3.83;;;;;;;23.23;60.53;95431.94;4993495;28;20193;-78
2022/09/05 07:40:08;;;;;;;4.15;3.75;;;;;;;23.31;59.90;95430.91;4993282;28;20513;-78
2022/09/05 07:42:41;;;;;;;3.90;3.60;;;;;;;23.36;59.89;95428.53;4993233;28;20189;-77
2022/09/05 07:45:12;;;;;;;4.15;3.72;;;;;;;23.21;60.40;95402.59;4993314;28;20228;-77
2022/09/05 07:47:43;;;;;;;3.63;3.33;;;;;;;23.10;59.41;95404.97;4993752;28;20213;-80
2022/09/05 07:50:12;;;;;;;7.28;3.97;;;;;;;23.24;59.82;95435.34;4996211;28;20196;-80
2022/09/05 07:52:43;;;;;;;4.30;4.00;;;;;;;23.31;59.85;95424.91;4995019;28;20185;-79
2022/09/05 07:55:25;;;;;;;7.00;5.40;;;;;;;23.25;59.70;95429.13;4992893;28;20203;-78
2022/09/05 07:57:58;;;;;;;10.05;4.13;;;;;;;23.24;59.63;95430.94;4993283;28;20645;-77
2022/09/05 08:00:28;;;;;;;3.92;3.63;;;;;;;23.07;59.10;95368.88;4992687;28;20739;-77
2022/09/05 08:02:55;;;;;;;5.90;4.05;;;;;;;23.67;59.10;95438.44;4993176;28;20216;-78
2022/09/05 08:05:25;;;;;;;4.32;3.92;;;;;;;23.40;58.97;95415.88;4992824;28;20197;-79
2022/09/05 08:07:56;;;;;;;4.00;3.17;;;;;;;23.73;56.80;95423.75;4992925;28;20228;-80
2022/09/05 08:10:29;;;;;;;4.13;3.70;;;;;;;23.76;56.79;95395.44;4993376;28;20193;-78
2022/09/05 08:13:02;;;;;;;3.85;3.55;;;;;;;24.19;56.41;95442.00;4993193;28;20577;-80
2022/09/05 08:15:30;;;;;;;5.32;3.40;;;;;;;24.17;56.95;95437.97;4992929;28;20233;-79
2022/09/05 08:18:11;;;;;;;4.00;3.60;;;;;;;24.17;57.31;95443.22;4992977;28;20205;-78
2022/09/05 08:20:45;;;;;;;3.47;3.28;;;;;;;24.43;55.35;95439.75;4992413;28;20205;-79
2022/09/05 08:23:32;;;;;;;4.32;3.20;;;;;;;24.60;54.97;95440.13;4992089;28;20515;-77
2022/09/05 08:26:05;;;;;;;5.70;3.72;;;;;;;24.60;53.70;95443.53;4992717;28;20225;-78
2022/09/05 08:28:44;;;;;;;3.30;3.00;;;;;;;24.54;53.75;95423.44;4992561;28;20687;-80
2022/09/05 08:31:15;;;;;;;4.07;3.55;;;;;;;24.63;54.52;95448.38;4993179;28;20196;-81
2022/09/05 08:33:50;;;;;;;3.90;3.45;;;;;;;24.06;54.08;95375.91;4992211;28;20194;-79
2022/09/05 08:36:30;;;;;;;3.83;3.00;;;;;;;24.63;52.74;95432.66;4992367;28;20664;-83
2022/09/05 08:39:00;;;;;;;4.00;3.53;;;;;;;24.45;53.63;95437.75;4992309;28;20248;-79
2022/09/05 08:41:30;;;;;;;3.50;3.20;;;;;;;24.43;55.00;95443.19;4992273;28;20189;-81
2022/09/05 08:44:10;;;;;;;2.83;2.63;;;;;;;24.54;53.71;95449.59;4983881;28;20201;-79
2022/09/05 08:46:48;;;;;;;3.40;3.10;;;;;;;24.39;54.32;95434.13;4993065;28;20213;-79
2022/09/05 08:49:49;;;;;;;3.10;2.90;;;;;;;24.58;52.78;95439.53;4991438;28;20212;-77
2022/09/05 08:52:28;;;;;;;3.90;3.58;;;;;;;23.96;53.94;95371.91;4991995;28;20635;-80
2022/09/05 08:55:09;;;;;;;4.25;2.90;;;;;;;24.40;53.96;95442.81;4992449;28;20227;-80
2022/09/05 08:58:00;;;;;;;4.75;3.30;;;;;;;24.40;53.81;95437.59;4991881;28;20219;-79
2022/09/05 09:00:34;;;;;;;3.22;3.03;;;;;;;24.44;53.29;95438.78;4991910;28;20197;-80
2022/09/05 09:03:15;;;;;;;3.85;3.10;;;;;;;24.51;52.84;95432.50;4992922;28;20692;-80
2022/09/05 09:06:27;;;;;;;3.30;3.10;;;;;;;24.55;53.61;95430.28;4991606;28;20197;-78
2022/09/05 09:09:11;;;;;;;3.72;3.42;;;;;;;24.33;53.50;95428.91;4912273;29;20221;-80
2022/09/05 09:11:42;;;;;;;4.13;3.08;;;;;;;24.27;53.40;95438.38;4912528;29;20200;-78
2022/09/05 09:14:39;;;;;;;3.10;2.83;;;;;;;24.28;53.26;95442.59;4912139;29;20256;-77
2022/09/05 09:17:27;;;;;;;3.72;3.40;;;;;;;24.46;51.85;95437.56;4893408;29;20196;-79
2022/09/05 09:20:25;;;;;;;2.80;2.60;;;;;;;24.35;51.74;95424.25;4893206;29;20280;-80
2022/09/05 09:22:57;;;;;;;2.58;2.40;;;;;;;24.55;50.55;95437.31;4893400;29;20201;-79
2022/09/05 09:25:28;;;;;;;3.40;3.10;;;;;;;24.58;51.52;95434.31;4893356;29;20196;-77
2022/09/05 09:28:41;;;;;;;4.05;3.17;;;;;;;24.68;50.70;95437.28;4893758;29;20611;-78
2022/09/05 09:31:14;;;;;;;4.47;2.97;;;;;;;24.61;52.01;95437.31;4819723;29;20199;-77
2022/09/05 09:33:48;;;;;;;4.72;3.15;;;;;;;24.58;50.96;95432.50;4819664;29;20203;-78
2022/09/05 09:36:42;;;;;;;4.03;3.67;;;;;;;24.42;51.30;95425.09;4819703;29;20199;-80
2022/09/05 09:39:23;;;;;;;4.75;3.92;;;;;;;24.31;52.59;95415.22;4819424;29;20196;-79
2022/09/05 09:42:03;;;;;;;3.83;3.50;;;;;;;24.22;52.51;95425.09;4819704;29;20209;-79
2022/09/05 09:45:16;;;;;;;4.97;3.65;;;;;;;24.32;53.06;95427.31;4819405;29;20198;-77
2022/09/05 09:47:59;;;;;;;4.25;3.03;;;;;;;24.18;53.22;95419.50;4837151;29;20226;-79
2022/09/05 09:50:42;;;;;;;3.63;2.60;;;;;;;24.08;53.22;95421.72;4838067;29;20778;-80
2022/09/05 09:53:29;;;;;;;3.22;2.92;;;;;;;23.74;52.74;95342.56;4849318;29;20207;-80
2022/09/05 09:56:37;;;;;;;4.22;3.10;;;;;;;24.17;52.81;95419.69;4875004;29;20207;-81
2022/09/05 09:59:23;;;;;;;3.78;3.33;;;;;;;24.25;52.30;95409.81;4800830;29;20200;-80
2022/09/05 10:01:56;;;;;;;3.17;2.92;;;;;;;24.11;52.44;95379.50;4811075;29;20199;-79
2022/09/05 10:04:43;;;;;;;3.33;3.13;;;;;;;24.31;50.85;95407.38;4812454;29;20206;-76
2022/09/05 10:07:35;;;;;;;3.10;2.83;;;;;;;24.02;51.34;95402.44;4844952;29;20232;-78
2022/09/05 10:10:20;;;;;;;2.65;2.47;;;;;;;23.91;51.62;95392.59;4900236;29;20576;-80
2022/09/05 10:13:20;;;;;;;2.50;2.30;;;;;;;24.12;51.64;95404.63;4898752;29;20204;-81
2022/09/05 10:16:24;;;;;;;2.95;2.75;;;;;;;24.25;51.21;95390.72;4910435;29;20235;-81
2022/09/05 10:19:25;;;;;;;4.20;2.88;;;;;;;24.34;51.13;95384.25;4912467;29;20188;-81
2022/09/05 10:22:09;;;;;;;2.90;2.63;;;;;;;24.28;51.25;95382.47;4856037;29;20201;-82
2022/09/05 10:25:07;;;;;;;3.05;2.83;;;;;;;24.16;51.67;95377.06;4855512;29;20194;-81
2022/09/05 10:28:01;;;;;;;2.78;2.55;;;;;;;24.34;50.61;95367.75;4855494;29;20771;-81
2022/09/05 10:30:41;;;;;;;2.90;2.70;;;;;;;23.99;51.29;95321.81;4855584;29;20266;-81
2022/09/05 10:33:28;;;;;;;4.47;2.90;;;;;;;24.40;50.64;95365.16;4855676;29;20205;-83
2022/09/05 10:36:02;;;;;;;3.08;2.78;;;;;;;24.33;50.47;95363.56;4875432;29;20199;-79
2022/09/05 10:38:39;;;;;;;3.33;3.03;;;;;;;24.52;49.33;95366.13;4911705;29;20195;-80
2022/09/05 10:41:12;;;;;;;2.40;2.28;;;;;;;24.40;49.10;95336.41;4895597;29;20195;-81
2022/09/05 10:43:49;;;;;;;2.92;2.72;;;;;;;24.50;49.25;95344.59;4911765;29;20195;-83
2022/09/05 10:46:28;;;;;;;3.33;2.45;;;;;;;24.47;49.79;95339.78;4914461;29;20710;-83
2022/09/05 10:49:01;;;;;;;2.65;2.45;;;;;;;24.66;49.65;95366.06;4915978;29;20196;-81
2022/09/05 10:51:34;;;;;;;3.03;2.83;;;;;;;24.44;49.09;95316.69;4915263;29;20196;-78
2022/09/05 10:54:28;;;;;;;2.97;2.75;;;;;;;24.66;49.33;95358.22;4915372;29;20187;-81
2022/09/05 10:57:17;;;;;;;2.95;2.75;;;;;;;24.62;50.26;95363.06;4914867;29;20187;-81
2022/09/05 11:00:03;;;;;;;3.90;3.60;;;;;;;24.63;51.35;95363.88;4994503;28;20657;-82
2022/09/05 11:02:32;;;;;;;5.10;3.55;;;;;;;24.62;51.22;95362.25;4994202;28;20271;-81
2022/09/05 11:05:06;;;;;;;5.18;4.20;;;;;;;24.49;51.44;95363.91;4994439;28;20200;-81
2022/09/05 11:07:40;;;;;;;4.20;3.20;;;;;;;24.33;51.66;95348.66;4993997;28;20224;-81
2022/09/05 11:10:13;;;;;;;4.60;3.78;;;;;;;24.12;51.78;95339.28;4994092;28;20216;-81
2022/09/05 11:13:03;;;;;;;4.95;3.92;;;;;;;24.19;52.10;95358.38;4993897;28;20187;-81
2022/09/05 11:15:41;;;;;;;3.30;3.00;;;;;;;23.84;53.08;95364.88;4994387;28;20224;-80
2022/09/05 11:18:14;;;;;;;3.47;2.92;;;;;;;23.86;52.54;95350.59;4994843;28;20193;-80
2022/09/05 11:20:50;;;;;;;3.83;3.53;;;;;;;23.71;53.09;95331.75;5001045;28;20200;-79
2022/09/05 11:23:21;;;;;;;3.05;2.85;;;;;;;23.80;53.25;95327.13;4994645;28;20894;-82
2022/09/05 11:25:57;;;;;;;3.42;3.13;;;;;;;23.91;51.97;95336.91;4993643;28;20223;-79
2022/09/05 11:28:36;;;;;;;2.92;2.72;;;;;;;24.00;52.04;95336.50;4993345;28;20303;-77
2022/09/05 11:31:12;;;;;;;3.45;3.05;;;;;;;23.89;51.98;95307.59;4993511;28;20188;-78
2022/09/05 11:34:05;;;;;;;3.45;3.15;;;;;;;24.11;51.35;95331.66;4993681;28;20192;-79
2022/09/05 11:36:38;;;;;;;3.38;3.10;;;;;;;24.26;51.57;95340.03;4990024;28;20193;-77
2022/09/05 11:39:46;;;;;;;3.67;3.38;;;;;;;24.28;51.72;95332.81;4993602;28;20660;-77
2022/09/05 11:42:42;;;;;;;4.30;3.20;;;;;;;24.35;51.71;95338.78;4993508;28;20197;-78
2022/09/05 11:45:38;;;;;;;3.72;3.42;;;;;;;24.44;51.28;95328.97;4990894;28;20557;-77
2022/09/05 11:48:41;;;;;;;3.78;2.55;;;;;;;24.51;49.92;95332.31;4993160;28;20738;-79
2022/09/05 11:51:39;;;;;;;2.90;2.70;;;;;;;24.17;50.46;95253.22;4913359;29;20203;-78
2022/09/05 11:54:36;;;;;;;2.45;2.25;;;;;;;24.65;50.41;95326.00;4914636;29;20195;-78
2022/09/05 11:57:20;;;;;;;3.13;2.83;;;;;;;24.35;50.24;95291.72;4867280;29;20197;-79
2022/09/05 12:00:18;;;;;;;4.15;3.38;;;;;;;24.44;50.50;95326.34;4876250;29;20189;-79
2022/09/05 12:03:05;;;;;;;5.25;4.75;;;;;;;24.33;50.37;95329.56;4875916;29;20197;-80
2022/09/05 12:06:01;;;;;;;3.90;3.55;;;;;;;24.21;50.97;95300.66;4876565;29;20208;-81
2022/09/05 12:08:38;;;;;;;6.40;3.72;;;;;;;24.25;50.64;95315.69;4876104;29;20609;-81
2022/09/05 12:11:21;;;;;;;6.10;3.65;;;;;;;23.92;51.25;95312.41;4876284;29;20196;-82
2022/09/05 12:13:53;;;;;;;3.25;2.95;;;;;;;23.44;51.21;95265.66;4874544;29;20204;-80
2022/09/05 12:16:38;;;;;;;3.85;3.45;;;;;;;23.71;51.64;95284.75;4857319;29;20198;-78
2022/09/05 12:19:17;;;;;;;3.97;3.65;;;;;;;23.77;51.45;95305.59;4857799;29;20311;-78
2022/09/05 12:22:03;;;;;;;3.80;3.30;;;;;;;23.69;51.56;95308.44;4857320;29;20229;-80
2022/09/05 12:24:37;;;;;;;6.18;3.97;;;;;;;23.71;51.57;95296.00;4855360;29;20222;-78
2022/09/05 12:27:09;;;;;;;3.85;3.50;;;;;;;23.83;51.25;95308.41;4875238;29;20199;-80
2022/09/05 12:29:40;;;;;;;4.97;3.30;;;;;;;23.89;50.36;95305.78;4913176;29;20624;-79
2022/09/05 12:32:15;;;;;;;4.07;3.75;;;;;;;23.83;51.26;95303.19;4913308;29;20317;-81
2022/09/05 12:34:49;;;;;;;3.42;3.13;;;;;;;23.91;51.47;95301.16;4959601;28;20255;-80
2022/09/05 12:37:27;;;;;;;5.43;3.45;;;;;;;23.82;51.79;95294.53;4979121;28;20664;-82
2022/09/05 12:40:00;;;;;;;5.32;3.30;;;;;;;23.83;51.41;95306.59;4978003;28;20245;-81
2022/09/05 12:42:38;;;;;;;3.30;3.00;;;;;;;23.74;51.67;95306.00;4979996;28;20357;-80